createdAt,value
2022-12-08T00:00:12.744Z,26.08
2022-12-08T00:02:39.730Z,17.58
2022-12-08T00:05:25.685Z,24.38
2022-12-08T00:08:11.182Z,18.60
2022-12-08T00:10:48.884Z,24.50
2022-12-08T00:13:16.134Z,24.58
2022-12-08T00:15:43.010Z,21.52
2022-12-08T00:18:09.908Z,21.65
2022-12-08T00:20:36.763Z,21.90
2022-12-08T00:23:04.553Z,24.27
2022-12-08T00:25:32.383Z,22.63
2022-12-08T00:27:59.323Z,23.55
2022-12-08T00:30:26.230Z,27.05
2022-12-08T00:32:53.164Z,25.67
2022-12-08T00:35:20.488Z,31.48
2022-12-08T00:37:48.487Z,24.85
2022-12-08T00:40:15.410Z,23.02
2022-12-08T00:42:42.313Z,20.50
2022-12-08T00:45:09.560Z,19.75
2022-12-08T00:47:36.705Z,19.17
2022-12-08T00:50:04.490Z,22.10
2022-12-08T00:52:31.617Z,17.48
2022-12-08T00:54:58.909Z,17.83
2022-12-08T00:57:25.969Z,16.67
2022-12-08T00:59:52.874Z,20.08
2022-12-08T01:02:19.807Z,25.23
2022-12-08T01:04:46.725Z,21.73
2022-12-08T01:07:13.582Z,22.15
2022-12-08T01:09:40.511Z,16.30
2022-12-08T01:12:07.938Z,18.67
2022-12-08T01:14:34.991Z,17.75
2022-12-08T01:17:01.955Z,27.27
2022-12-08T01:19:28.972Z,21.38
2022-12-08T01:21:55.846Z,26.33
2022-12-08T01:24:22.823Z,18.92
2022-12-08T01:26:50.988Z,18.80
2022-12-08T01:29:18.249Z,23.30
2022-12-08T01:31:45.276Z,24.08
2022-12-08T01:34:12.432Z,25.65
2022-12-08T01:36:39.599Z,23.15
2022-12-08T01:39:10.432Z,26.95
2022-12-08T01:41:38.399Z,28.23
2022-12-08T01:44:11.278Z,26.08
2022-12-08T01:46:43.057Z,26.45
2022-12-08T01:49:18.395Z,20.98
2022-12-08T01:52:14.038Z,25.80
2022-12-08T01:54:53.547Z,27.83
2022-12-08T01:57:43.657Z,23.23
2022-12-08T02:00:17.131Z,21.17
2022-12-08T02:02:53.084Z,43.13
2022-12-08T02:05:23.325Z,271.13
2022-12-08T02:07:51.688Z,329.30
2022-12-08T02:10:21.371Z,421.70
2022-12-08T02:12:51.910Z,294.40
2022-12-08T02:15:19.265Z,73.75
2022-12-08T02:17:54.044Z,33.92
2022-12-08T02:20:21.019Z,25.58
2022-12-08T02:22:47.877Z,21.65
2022-12-08T02:25:23.719Z,20.67
2022-12-08T02:28:03.945Z,25.25
2022-12-08T02:30:50.833Z,24.10
2022-12-08T02:33:48.141Z,18.80
2022-12-08T02:36:44.265Z,17.98
2022-12-08T02:39:21.189Z,26.20
2022-12-08T02:41:52.311Z,17.90
2022-12-08T02:44:35.540Z,17.50
2022-12-08T02:47:10.623Z,21.75
2022-12-08T02:49:37.639Z,20.90
2022-12-08T02:52:24.925Z,28.40
2022-12-08T02:54:56.934Z,23.33
2022-12-08T02:58:04.758Z,22.30
2022-12-08T03:00:46.190Z,23.50
2022-12-08T03:03:43.329Z,21.70
2022-12-08T03:06:12.743Z,34.67
2022-12-08T03:08:58.718Z,29.98
2022-12-08T03:12:09.718Z,26.42
2022-12-08T03:14:38.455Z,181.40
2022-12-08T03:17:07.042Z,18.33
2022-12-08T03:19:41.321Z,56.80
2022-12-08T03:22:10.831Z,23.73
2022-12-08T03:24:40.813Z,20.10
2022-12-08T03:27:09.456Z,15.45
2022-12-08T03:29:36.676Z,19.75
2022-12-08T03:32:23.808Z,17.55
2022-12-08T03:37:19.162Z,15.32
2022-12-08T03:39:46.114Z,17.63
2022-12-08T03:42:13.054Z,22.02
2022-12-08T03:44:39.991Z,22.85
2022-12-08T03:47:06.887Z,17.48
2022-12-08T03:49:34.022Z,26.48
2022-12-08T03:52:00.922Z,19.55
2022-12-08T03:54:27.949Z,15.45
2022-12-08T03:56:54.945Z,17.55
2022-12-08T03:59:21.884Z,22.27
2022-12-08T04:01:49.014Z,19.83
2022-12-08T04:04:15.929Z,18.35
2022-12-08T04:06:42.894Z,20.10
2022-12-08T04:09:09.810Z,18.67
2022-12-08T04:11:36.770Z,15.57
2022-12-08T04:14:03.789Z,17.70
2022-12-08T04:16:30.770Z,19.35
2022-12-08T04:18:57.878Z,19.80
2022-12-08T04:21:24.900Z,53.22
2022-12-08T04:23:54.936Z,18.83
2022-12-08T04:26:26.444Z,25.20
2022-12-08T04:28:53.387Z,24.98
2022-12-08T04:31:20.253Z,62.85
2022-12-08T04:33:47.206Z,121.80
2022-12-08T04:36:14.302Z,105.20
2022-12-08T04:38:41.313Z,61.38
2022-12-08T04:41:08.439Z,13.77
2022-12-08T04:43:36.314Z,40.95
2022-12-08T04:46:07.292Z,27.08
2022-12-08T04:48:34.806Z,9.98
2022-12-08T04:51:01.733Z,14.82
2022-12-08T04:53:28.633Z,7.68
2022-12-08T04:55:55.748Z,7.32
2022-12-08T04:58:22.690Z,9.07
2022-12-08T05:00:49.994Z,7.05
2022-12-08T05:03:17.553Z,19.80
2022-12-08T05:05:44.920Z,23.75
2022-12-08T05:08:12.026Z,40.58
2022-12-08T05:10:39.048Z,40.63
2022-12-08T05:13:06.185Z,40.00
2022-12-08T05:15:33.109Z,26.35
2022-12-08T05:18:00.027Z,18.88
2022-12-08T05:20:27.069Z,19.67
2022-12-08T05:22:54.220Z,15.25
2022-12-08T05:25:21.280Z,18.25
2022-12-08T05:27:48.230Z,16.58
2022-12-08T05:30:15.190Z,16.98
2022-12-08T05:32:42.069Z,43.45
2022-12-08T05:35:09.171Z,95.13
2022-12-08T05:37:36.098Z,69.63
2022-12-08T05:40:03.267Z,90.78
2022-12-08T05:42:30.605Z,59.45
2022-12-08T05:44:57.632Z,36.17
2022-12-08T05:47:24.532Z,37.55
2022-12-08T05:49:51.463Z,39.05
2022-12-08T05:52:18.397Z,35.88
2022-12-08T05:54:45.365Z,35.17
2022-12-08T05:57:12.439Z,38.10
2022-12-08T05:59:39.871Z,43.40
2022-12-08T06:02:06.906Z,41.97
2022-12-08T06:04:34.002Z,29.13
2022-12-08T06:07:00.916Z,13.00
2022-12-08T06:09:27.795Z,17.75
2022-12-08T06:11:54.784Z,9.98
2022-12-08T06:14:21.685Z,12.52
2022-12-08T06:16:48.775Z,21.88
2022-12-08T06:19:16.443Z,16.23
2022-12-08T06:21:43.391Z,16.33
2022-12-08T06:24:10.374Z,25.48
2022-12-08T06:26:37.380Z,22.15
2022-12-08T06:29:05.182Z,19.83
2022-12-08T06:31:32.137Z,16.10
2022-12-08T06:33:59.163Z,19.70
2022-12-08T06:36:28.329Z,11.43
2022-12-08T06:38:55.956Z,12.32
2022-12-08T06:41:22.822Z,13.48
2022-12-08T06:43:49.837Z,14.35
2022-12-08T06:46:19.487Z,14.13
2022-12-08T06:48:47.383Z,13.50
2022-12-08T06:51:17.231Z,14.27
2022-12-08T06:53:44.882Z,12.40
2022-12-08T06:56:13.070Z,14.48
2022-12-08T06:58:40.191Z,15.93
2022-12-08T07:01:09.332Z,19.23
2022-12-08T07:03:36.930Z,19.50
2022-12-08T07:06:04.716Z,18.27
2022-12-08T07:08:33.310Z,23.10
2022-12-08T07:11:00.430Z,22.95
2022-12-08T07:13:27.278Z,17.20
2022-12-08T07:15:54.191Z,19.10
2022-12-08T07:18:21.050Z,17.80
2022-12-08T07:20:47.956Z,16.45
2022-12-08T07:23:15.030Z,15.88
2022-12-08T07:25:42.006Z,20.02
2022-12-08T07:28:10.881Z,17.02
2022-12-08T07:30:39.132Z,20.13
2022-12-08T07:33:06.824Z,18.15
2022-12-08T07:35:35.149Z,21.98
2022-12-08T07:38:03.037Z,23.63
2022-12-08T07:40:29.956Z,27.38
2022-12-08T07:42:56.899Z,29.42
2022-12-08T07:45:31.110Z,27.30
2022-12-08T07:47:58.532Z,28.30
2022-12-08T07:50:25.489Z,31.10
2022-12-08T07:52:52.350Z,30.85
2022-12-08T07:55:19.247Z,35.45
2022-12-08T07:57:46.136Z,34.50
2022-12-08T08:00:13.810Z,38.45
2022-12-08T08:02:42.073Z,35.97
2022-12-08T08:05:09.834Z,34.55
2022-12-08T08:07:37.338Z,29.88
2022-12-08T08:10:06.050Z,29.85
2022-12-08T08:12:33.469Z,21.45
2022-12-08T08:15:01.636Z,21.55
2022-12-08T08:17:29.922Z,18.50
2022-12-08T08:19:57.215Z,20.45
2022-12-08T08:22:25.785Z,22.77
2022-12-08T08:24:53.317Z,19.50
2022-12-08T08:27:21.051Z,20.48
2022-12-08T08:29:48.058Z,32.13
2022-12-08T08:32:14.943Z,28.38
2022-12-08T08:34:41.892Z,31.00
2022-12-08T08:37:08.876Z,33.40
2022-12-08T08:39:35.977Z,38.58
2022-12-08T08:42:02.987Z,34.17
2022-12-08T08:44:29.919Z,31.35
2022-12-08T08:46:56.828Z,36.50
2022-12-08T08:49:23.763Z,41.58
2022-12-08T08:51:50.778Z,27.55
2022-12-08T08:54:17.686Z,23.48
2022-12-08T08:56:44.617Z,28.17
2022-12-08T08:59:11.542Z,25.13
2022-12-08T09:01:38.573Z,31.63
2022-12-08T09:04:05.759Z,35.53
2022-12-08T09:06:32.895Z,42.13
2022-12-08T09:08:59.946Z,29.88
2022-12-08T09:11:26.885Z,28.60
2022-12-08T09:13:54.911Z,29.48
2022-12-08T09:16:22.740Z,29.88
2022-12-08T09:18:50.019Z,28.80
2022-12-08T09:21:25.920Z,28.02
2022-12-08T09:23:55.075Z,26.75
2022-12-08T09:26:22.678Z,27.10
2022-12-08T09:28:51.965Z,28.13
2022-12-08T09:31:20.908Z,29.90
2022-12-08T09:33:48.861Z,30.20
2022-12-08T09:36:15.822Z,23.60
2022-12-08T09:38:42.816Z,26.35
2022-12-08T09:41:23.617Z,24.83
2022-12-08T09:44:38.790Z,28.27
2022-12-08T10:17:51.349Z,16.93
2022-12-08T10:20:21.702Z,16.58
2022-12-08T10:22:55.865Z,24.92
2022-12-08T10:25:35.589Z,23.27
2022-12-08T10:28:02.647Z,19.65
2022-12-08T10:30:32.200Z,25.23
2022-12-08T10:32:59.470Z,23.35
2022-12-08T10:35:45.112Z,25.00
2022-12-08T10:38:26.139Z,25.48
2022-12-08T10:41:07.499Z,26.92
2022-12-08T10:43:37.210Z,26.95
2022-12-08T10:46:17.368Z,25.25
2022-12-08T10:48:52.335Z,24.20
2022-12-08T10:51:37.912Z,24.42
2022-12-08T10:54:06.305Z,25.17
2022-12-08T10:56:33.676Z,26.17
2022-12-08T10:59:19.365Z,25.02
2022-12-08T11:01:49.509Z,30.38
2022-12-08T11:04:20.846Z,27.33
2022-12-08T11:06:49.348Z,28.27
2022-12-08T11:09:16.267Z,32.45
2022-12-08T11:11:52.007Z,26.33
2022-12-08T11:14:25.165Z,27.87
2022-12-08T11:17:02.573Z,29.38
2022-12-08T11:19:29.646Z,28.42
2022-12-08T11:21:56.636Z,26.55
2022-12-08T11:24:29.349Z,29.15
2022-12-08T11:27:07.208Z,27.40
2022-12-08T11:29:35.984Z,24.80
2022-12-08T11:32:11.475Z,28.73
2022-12-08T11:34:49.632Z,19.85
2022-12-08T11:37:24.020Z,26.90
2022-12-08T11:39:55.430Z,21.05
2022-12-08T11:42:26.402Z,30.35
2022-12-08T11:45:06.305Z,22.63
2022-12-08T11:47:56.036Z,27.48
2022-12-08T11:50:29.867Z,29.73
2022-12-08T11:52:58.360Z,28.08
2022-12-08T11:55:42.649Z,32.50
2022-12-08T11:58:38.325Z,27.85
2022-12-08T12:01:05.718Z,29.38
2022-12-08T12:03:38.720Z,29.83
2022-12-08T12:06:18.285Z,30.80
2022-12-08T12:09:08.009Z,35.50
2022-12-08T12:12:16.835Z,27.20
2022-12-08T12:15:14.386Z,34.97
2022-12-08T12:17:53.351Z,37.65
2022-12-08T12:20:42.603Z,31.50
2022-12-08T12:23:19.935Z,40.35
2022-12-08T12:26:00.235Z,49.90
2022-12-08T12:28:37.368Z,43.03
2022-12-08T12:31:12.275Z,51.10
2022-12-08T12:33:39.405Z,61.78
2022-12-08T12:36:08.997Z,67.15
2022-12-08T12:38:57.893Z,51.67
2022-12-08T12:41:45.450Z,47.83
2022-12-08T12:44:12.335Z,41.97
2022-12-08T12:46:50.886Z,48.08
2022-12-08T12:49:39.680Z,54.17
2022-12-08T12:52:18.928Z,56.92
2022-12-08T12:55:11.892Z,49.15
2022-12-08T12:57:40.395Z,48.50
2022-12-08T13:00:10.472Z,53.53
2022-12-08T13:02:45.942Z,45.75
2022-12-08T13:05:25.065Z,47.15
2022-12-08T13:07:58.997Z,43.67
2022-12-08T13:10:37.373Z,48.65
2022-12-08T13:13:06.363Z,39.30
2022-12-08T13:15:55.160Z,39.00
2022-12-08T13:18:54.310Z,33.92
2022-12-08T13:21:23.699Z,37.53
2022-12-08T13:23:51.803Z,37.30
2022-12-08T13:26:28.267Z,36.33
2022-12-08T13:29:04.194Z,32.63
2022-12-08T13:31:53.988Z,32.97
2022-12-08T13:34:45.790Z,32.38
2022-12-08T13:37:13.583Z,39.55
2022-12-08T13:39:40.603Z,34.33
2022-12-08T13:42:13.572Z,33.42
2022-12-08T13:48:21.748Z,34.28
2022-12-08T13:57:12.243Z,31.02
2022-12-08T13:59:44.571Z,35.35
2022-12-08T14:02:26.047Z,32.95
2022-12-08T14:05:17.535Z,33.75
2022-12-08T14:07:42.928Z,37.67
2022-12-08T14:10:35.836Z,36.15
2022-12-08T14:13:11.350Z,35.63
2022-12-08T14:15:40.336Z,47.65
2022-12-08T14:18:23.883Z,38.25
2022-12-08T14:21:20.744Z,40.25
2022-12-08T14:26:15.253Z,32.53
2022-12-08T14:28:45.204Z,35.72
2022-12-08T14:31:14.730Z,33.42
2022-12-08T14:33:42.192Z,29.15
2022-12-08T14:36:10.129Z,35.40
2022-12-08T14:38:37.175Z,37.22
2022-12-08T14:41:06.788Z,39.83
2022-12-08T14:43:34.233Z,33.88
2022-12-08T14:46:05.281Z,29.25
2022-12-08T14:48:36.390Z,27.65
2022-12-08T14:51:24.090Z,38.45
2022-12-08T14:54:01.056Z,29.15
2022-12-08T14:56:38.471Z,29.20
2022-12-08T14:59:36.600Z,39.80
2022-12-08T15:02:25.307Z,29.55
2022-12-08T15:05:01.775Z,27.38
2022-12-08T15:10:17.491Z,31.35
2022-12-08T15:13:00.780Z,36.03
2022-12-08T15:15:29.285Z,30.48
2022-12-08T15:18:18.320Z,34.25
2022-12-08T15:20:53.679Z,38.78
2022-12-08T15:23:29.687Z,26.67
2022-12-08T15:25:57.351Z,32.97
2022-12-08T15:28:30.040Z,35.38
2022-12-08T15:30:58.830Z,35.67
2022-12-08T15:33:26.208Z,32.03
2022-12-08T15:35:53.353Z,29.38
2022-12-08T15:38:31.066Z,29.75
2022-12-08T15:40:58.872Z,27.83
2022-12-08T15:43:26.311Z,34.63
2022-12-08T15:45:59.379Z,26.92
2022-12-08T15:48:29.469Z,27.33
2022-12-08T15:50:56.724Z,28.90
2022-12-08T15:53:23.778Z,36.20
2022-12-08T15:56:25.699Z,29.13
2022-12-08T15:58:53.567Z,28.33
2022-12-08T16:01:20.909Z,30.15
2022-12-08T16:09:38.777Z,35.72
2022-12-08T16:13:26.683Z,31.55
2022-12-08T16:15:51.304Z,33.63
2022-12-08T16:18:24.072Z,35.60
2022-12-08T16:29:08.058Z,37.20
2022-12-08T16:31:35.340Z,37.85
2022-12-08T16:34:02.283Z,38.50
2022-12-08T16:36:29.226Z,30.35
2022-12-08T16:38:56.262Z,27.15
2022-12-08T16:41:41.726Z,30.90
2022-12-08T16:44:08.591Z,33.05
2022-12-08T16:46:36.139Z,29.17
2022-12-08T16:49:04.441Z,32.50
2022-12-08T16:51:31.347Z,30.52
2022-12-08T16:53:58.654Z,29.45
2022-12-08T16:56:32.657Z,30.27
2022-12-08T16:59:02.236Z,26.15
2022-12-08T17:01:29.638Z,30.23
2022-12-08T17:04:22.974Z,27.33
2022-12-08T17:06:43.426Z,28.85
2022-12-08T17:09:10.401Z,26.58
2022-12-08T17:11:43.077Z,27.05
2022-12-08T17:14:14.763Z,30.77
2022-12-08T17:16:42.289Z,28.42
2022-12-08T17:19:09.388Z,30.05
2022-12-08T17:21:36.369Z,26.27
2022-12-08T17:24:03.696Z,29.50
2022-12-08T17:26:30.713Z,30.48
2022-12-08T17:29:01.518Z,30.92
2022-12-08T17:31:31.071Z,29.73
2022-12-08T17:34:03.139Z,28.33
2022-12-08T17:36:30.363Z,26.85
2022-12-08T17:38:59.173Z,32.60
2022-12-08T17:41:26.082Z,30.30
2022-12-08T17:43:52.980Z,26.75
2022-12-08T17:46:20.790Z,31.80
2022-12-08T17:48:47.931Z,31.48
2022-12-08T17:51:15.890Z,26.00
2022-12-08T17:53:42.950Z,34.72
2022-12-08T17:56:21.265Z,28.35
2022-12-08T17:58:54.288Z,30.05
2022-12-08T18:01:22.834Z,35.63
2022-12-08T18:03:49.976Z,28.38
2022-12-08T18:06:20.589Z,32.35
2022-12-08T18:08:47.833Z,27.52
2022-12-08T18:11:18.700Z,29.08
2022-12-08T18:13:46.902Z,30.38
2022-12-08T18:16:14.819Z,28.33
2022-12-08T18:18:42.075Z,27.45
2022-12-08T18:21:09.788Z,30.00
2022-12-08T18:23:41.196Z,26.65
2022-12-08T18:26:10.110Z,32.03
2022-12-08T18:28:38.194Z,29.80
2022-12-08T18:31:10.693Z,33.22
2022-12-08T18:33:40.450Z,35.55
2022-12-08T18:36:13.447Z,25.23
2022-12-08T18:38:40.607Z,28.85
2022-12-08T18:41:10.244Z,32.03
2022-12-08T18:43:37.852Z,29.58
2022-12-08T18:46:10.587Z,24.55
2022-12-08T18:48:41.697Z,25.85
2022-12-08T18:51:11.556Z,28.30
2022-12-08T18:53:39.910Z,27.88
2022-12-08T18:56:07.899Z,28.58
2022-12-08T18:58:35.458Z,28.67
2022-12-08T19:01:02.439Z,27.23
2022-12-08T19:03:29.662Z,30.38
2022-12-08T19:06:04.132Z,31.00
2022-12-08T19:08:31.651Z,28.35
2022-12-08T19:10:59.563Z,27.90
2022-12-08T19:13:27.436Z,25.88
2022-12-08T19:15:54.808Z,23.88
2022-12-08T19:18:21.884Z,29.85
2022-12-08T19:20:48.937Z,28.10
2022-12-08T19:23:16.345Z,26.20
2022-12-08T19:25:43.315Z,27.65
2022-12-08T19:28:10.245Z,28.50
2022-12-08T19:30:37.198Z,28.85
2022-12-08T19:33:04.084Z,29.00
2022-12-08T19:35:31.112Z,28.63
2022-12-08T19:37:58.063Z,27.70
2022-12-08T19:40:43.306Z,30.35
2022-12-08T19:43:33.044Z,31.77
2022-12-08T19:46:00.161Z,37.47
2022-12-08T19:48:27.374Z,52.05
2022-12-08T19:50:54.288Z,60.17
2022-12-08T19:53:21.713Z,57.13
2022-12-08T19:55:48.712Z,48.20
2022-12-08T19:58:16.334Z,46.20
2022-12-08T20:00:44.290Z,42.08
2022-12-08T20:03:16.269Z,37.38
2022-12-08T20:05:44.238Z,39.13
2022-12-08T20:08:11.270Z,37.00
2022-12-08T20:10:41.548Z,35.97
2022-12-08T20:13:28.710Z,29.50
2022-12-08T20:20:49.729Z,31.83
2022-12-08T20:23:17.948Z,29.25
2022-12-08T20:25:46.094Z,31.15
2022-12-08T20:28:13.044Z,29.77
2022-12-08T20:30:41.888Z,36.90
2022-12-08T20:33:12.560Z,29.00
2022-12-08T20:35:39.628Z,28.40
2022-12-08T20:38:06.549Z,31.10
2022-12-08T20:40:33.504Z,34.65
2022-12-08T20:43:01.273Z,37.38
2022-12-08T20:45:28.307Z,33.30
2022-12-08T20:47:55.377Z,30.55
2022-12-08T20:50:22.309Z,29.65
2022-12-08T20:52:49.309Z,31.77
2022-12-08T20:55:16.598Z,27.65
2022-12-08T20:57:43.610Z,29.70
2022-12-08T21:00:11.564Z,35.83
2022-12-08T21:02:45.057Z,31.17
2022-12-08T21:05:14.292Z,29.55
2022-12-08T21:07:41.695Z,34.03
2022-12-08T21:10:09.928Z,29.63
2022-12-08T21:12:37.206Z,26.85
2022-12-08T21:15:04.674Z,30.73
2022-12-08T21:17:31.825Z,30.25
2022-12-08T21:19:58.763Z,39.20
2022-12-08T21:22:25.755Z,34.55
2022-12-08T21:24:52.748Z,30.80
2022-12-08T21:27:19.650Z,37.20
2022-12-08T21:29:46.721Z,30.75
2022-12-08T21:32:13.714Z,36.00
2022-12-08T21:34:40.975Z,29.90
2022-12-08T21:37:08.026Z,29.80
2022-12-08T21:39:35.292Z,31.50
2022-12-08T21:42:22.691Z,31.67
2022-12-08T21:44:50.236Z,28.90
2022-12-08T21:47:17.337Z,32.28
2022-12-08T21:49:44.433Z,30.30
2022-12-08T21:52:11.363Z,28.67
2022-12-08T21:54:38.443Z,29.45
2022-12-08T21:57:05.319Z,30.33
2022-12-08T21:59:33.141Z,31.30
2022-12-08T22:02:00.309Z,30.33
2022-12-08T22:04:28.027Z,37.90
2022-12-08T22:06:55.137Z,27.73
2022-12-08T22:09:22.182Z,26.23
2022-12-08T22:11:49.529Z,29.95
2022-12-08T22:14:16.489Z,29.30
2022-12-08T22:16:44.372Z,28.65
2022-12-08T22:19:12.517Z,31.55
2022-12-08T22:21:40.273Z,28.52
2022-12-08T22:24:07.554Z,26.92
2022-12-08T22:26:34.447Z,28.02
2022-12-08T22:29:01.811Z,29.55
2022-12-08T22:31:28.797Z,26.52
2022-12-08T22:33:56.185Z,32.83
2022-12-08T22:36:25.163Z,27.75
2022-12-08T22:38:53.513Z,27.30
2022-12-08T22:41:21.676Z,27.13
2022-12-08T22:43:49.763Z,24.98
2022-12-08T22:46:20.129Z,26.58
2022-12-08T22:48:47.528Z,25.20
2022-12-08T22:51:14.790Z,28.58
2022-12-08T22:53:41.855Z,30.00
2022-12-08T22:56:11.021Z,25.95
2022-12-08T22:58:40.104Z,21.05
2022-12-08T23:01:08.116Z,23.33
2022-12-08T23:03:35.402Z,28.67
2022-12-08T23:06:11.657Z,24.67
2022-12-08T23:08:38.784Z,24.13
2022-12-08T23:11:06.174Z,26.42
2022-12-08T23:13:33.316Z,22.38
2022-12-08T23:16:00.303Z,23.92
2022-12-08T23:18:27.311Z,21.35
2022-12-08T23:20:54.418Z,26.70
2022-12-08T23:23:21.634Z,22.48
2022-12-08T23:25:48.491Z,26.55
2022-12-08T23:28:15.404Z,30.10
2022-12-08T23:30:42.672Z,25.40
2022-12-08T23:33:09.777Z,24.85
2022-12-08T23:35:36.851Z,24.98
2022-12-08T23:38:04.242Z,26.60
2022-12-08T23:40:31.475Z,29.00
2022-12-08T23:42:58.618Z,29.83
2022-12-08T23:45:26.083Z,26.15
2022-12-08T23:47:53.167Z,29.77
2022-12-08T23:50:20.179Z,29.30
2022-12-08T23:52:47.054Z,31.15
2022-12-08T23:55:14.142Z,29.58
2022-12-08T23:57:41.129Z,32.30
